sensor_id;sensor_type;location;lat;lon;timestamp;pressure;altitude;pressure_sealevel;temperature
73894;BMP280;62699;50.534;12.784;2023-06-10T00:01:24;96268.50;;;13.75
73894;BMP280;62699;50.534;12.784;2023-06-10T00:06:24;96287.47;;;13.75
73894;BMP280;62699;50.534;12.784;2023-06-10T00:11:25;96282.69;;;13.68
73894;BMP280;62699;50.534;12.784;2023-06-10T00:16:26;96280.75;;;13.63
73894;BMP280;62699;50.534;12.784;2023-06-10T00:21:33;96278.00;;;13.50
73894;BMP280;62699;50.534;12.784;2023-06-10T00:26:40;96291.91;;;13.41
73894;BMP280;62699;50.534;12.784;2023-06-10T00:31:42;96288.25;;;13.39
73894;BMP280;62699;50.534;12.784;2023-06-10T00:36:42;96283.72;;;13.28
73894;BMP280;62699;50.534;12.784;2023-06-10T00:41:43;96278.09;;;13.26
73894;BMP280;62699;50.534;12.784;2023-06-10T00:46:43;96256.84;;;13.17
73894;BMP280;62699;50.534;12.784;2023-06-10T00:51:44;96275.03;;;13.16
73894;BMP280;62699;50.534;12.784;2023-06-10T00:56:48;96264.31;;;13.11
73894;BMP280;62699;50.534;12.784;2023-06-10T01:01:48;96269.75;;;13.05
73894;BMP280;62699;50.534;12.784;2023-06-10T01:12:29;96258.81;;;12.98
73894;BMP280;62699;50.534;12.784;2023-06-10T01:17:33;96253.03;;;12.88
73894;BMP280;62699;50.534;12.784;2023-06-10T01:22:33;96263.34;;;12.90
73894;BMP280;62699;50.534;12.784;2023-06-10T01:27:37;96261.63;;;12.86
73894;BMP280;62699;50.534;12.784;2023-06-10T01:32:48;96257.84;;;12.76
73894;BMP280;62699;50.534;12.784;2023-06-10T01:37:53;96255.13;;;12.76
73894;BMP280;62699;50.534;12.784;2023-06-10T01:42:53;96259.16;;;12.70
73894;BMP280;62699;50.534;12.784;2023-06-10T01:48:03;96254.31;;;12.63
73894;BMP280;62699;50.534;12.784;2023-06-10T01:53:04;96256.28;;;12.62
73894;BMP280;62699;50.534;12.784;2023-06-10T01:58:07;96253.97;;;12.48
73894;BMP280;62699;50.534;12.784;2023-06-10T02:03:08;96263.59;;;12.43
73894;BMP280;62699;50.534;12.784;2023-06-10T02:08:08;96265.84;;;12.39
73894;BMP280;62699;50.534;12.784;2023-06-10T02:13:09;96263.16;;;12.39
73894;BMP280;62699;50.534;12.784;2023-06-10T02:18:10;96273.22;;;12.38
73894;BMP280;62699;50.534;12.784;2023-06-10T02:23:12;96276.44;;;12.37
73894;BMP280;62699;50.534;12.784;2023-06-10T02:28:12;96275.03;;;12.25
73894;BMP280;62699;50.534;12.784;2023-06-10T02:33:12;96276.81;;;12.22
73894;BMP280;62699;50.534;12.784;2023-06-10T02:38:13;96280.50;;;12.19
73894;BMP280;62699;50.534;12.784;2023-06-10T02:43:14;96278.31;;;12.18
73894;BMP280;62699;50.534;12.784;2023-06-10T02:48:14;96298.47;;;12.11
73894;BMP280;62699;50.534;12.784;2023-06-10T02:53:18;96282.16;;;11.98
73894;BMP280;62699;50.534;12.784;2023-06-10T02:58:19;96288.97;;;12.05
73894;BMP280;62699;50.534;12.784;2023-06-10T03:03:21;96301.47;;;12.08
73894;BMP280;62699;50.534;12.784;2023-06-10T03:08:22;96309.56;;;12.08
73894;BMP280;62699;50.534;12.784;2023-06-10T03:13:23;96314.66;;;12.11
73894;BMP280;62699;50.534;12.784;2023-06-10T03:18:27;96321.78;;;12.14
73894;BMP280;62699;50.534;12.784;2023-06-10T03:23:28;96325.50;;;12.06
73894;BMP280;62699;50.534;12.784;2023-06-10T03:28:29;96331.34;;;12.10
73894;BMP280;62699;50.534;12.784;2023-06-10T03:33:29;96334.25;;;12.17
73894;BMP280;62699;50.534;12.784;2023-06-10T03:38:30;96331.00;;;12.24
73894;BMP280;62699;50.534;12.784;2023-06-10T03:43:30;96334.19;;;12.28
73894;BMP280;62699;50.534;12.784;2023-06-10T03:48:31;96339.75;;;12.36
73894;BMP280;62699;50.534;12.784;2023-06-10T03:53:31;96329.63;;;12.42
73894;BMP280;62699;50.534;12.784;2023-06-10T03:58:31;96331.00;;;12.54
73894;BMP280;62699;50.534;12.784;2023-06-10T04:03:32;96330.31;;;12.72
73894;BMP280;62699;50.534;12.784;2023-06-10T04:08:33;96330.41;;;13.10
73894;BMP280;62699;50.534;12.784;2023-06-10T04:13:33;96337.66;;;13.39
73894;BMP280;62699;50.534;12.784;2023-06-10T04:18:34;96336.97;;;13.52
73894;BMP280;62699;50.534;12.784;2023-06-10T04:23:36;96328.34;;;14.04
73894;BMP280;62699;50.534;12.784;2023-06-10T04:28:42;96336.22;;;17.14
73894;BMP280;62699;50.534;12.784;2023-06-10T04:33:43;96333.19;;;19.98
73894;BMP280;62699;50.534;12.784;2023-06-10T04:38:43;96338.69;;;21.64
73894;BMP280;62699;50.534;12.784;2023-06-10T04:43:43;96337.53;;;21.31
73894;BMP280;62699;50.534;12.784;2023-06-10T04:48:43;96342.38;;;23.01
73894;BMP280;62699;50.534;12.784;2023-06-10T04:53:44;96345.38;;;25.16
73894;BMP280;62699;50.534;12.784;2023-06-10T04:58:45;96341.19;;;25.15
73894;BMP280;62699;50.534;12.784;2023-06-10T05:03:45;96355.09;;;26.49
73894;BMP280;62699;50.534;12.784;2023-06-10T05:08:45;96350.22;;;26.86
73894;BMP280;62699;50.534;12.784;2023-06-10T05:13:46;96351.38;;;26.69
73894;BMP280;62699;50.534;12.784;2023-06-10T05:18:46;96356.94;;;28.48
73894;BMP280;62699;50.534;12.784;2023-06-10T05:23:46;96368.53;;;29.21
73894;BMP280;62699;50.534;12.784;2023-06-10T05:28:47;96371.19;;;29.83
73894;BMP280;62699;50.534;12.784;2023-06-10T05:33:47;96367.69;;;30.53
73894;BMP280;62699;50.534;12.784;2023-06-10T05:38:48;96362.06;;;31.08
73894;BMP280;62699;50.534;12.784;2023-06-10T05:43:48;96365.94;;;28.78
73894;BMP280;62699;50.534;12.784;2023-06-10T05:48:49;96356.56;;;31.10
73894;BMP280;62699;50.534;12.784;2023-06-10T05:53:49;96361.69;;;28.32
73894;BMP280;62699;50.534;12.784;2023-06-10T05:58:50;96359.28;;;28.54
73894;BMP280;62699;50.534;12.784;2023-06-10T06:03:51;96361.44;;;29.49
73894;BMP280;62699;50.534;12.784;2023-06-10T06:08:51;96353.19;;;30.19
73894;BMP280;62699;50.534;12.784;2023-06-10T06:13:51;96354.25;;;31.44
73894;BMP280;62699;50.534;12.784;2023-06-10T06:18:53;96347.78;;;31.37
73894;BMP280;62699;50.534;12.784;2023-06-10T06:23:53;96351.19;;;32.68
73894;BMP280;62699;50.534;12.784;2023-06-10T06:28:53;96354.44;;;32.36
73894;BMP280;62699;50.534;12.784;2023-06-10T06:33:54;96354.88;;;33.00
73894;BMP280;62699;50.534;12.784;2023-06-10T06:38:54;96365.13;;;33.72
73894;BMP280;62699;50.534;12.784;2023-06-10T06:43:55;96373.22;;;34.19
73894;BMP280;62699;50.534;12.784;2023-06-10T06:48:55;96380.19;;;34.50
73894;BMP280;62699;50.534;12.784;2023-06-10T06:53:55;96377.09;;;33.77
73894;BMP280;62699;50.534;12.784;2023-06-10T06:58:58;96383.16;;;34.60
73894;BMP280;62699;50.534;12.784;2023-06-10T07:03:58;96376.44;;;33.51
73894;BMP280;62699;50.534;12.784;2023-06-10T07:08:59;96374.53;;;33.87
73894;BMP280;62699;50.534;12.784;2023-06-10T07:13:59;96372.34;;;33.54
73894;BMP280;62699;50.534;12.784;2023-06-10T07:18:59;96378.66;;;33.54
73894;BMP280;62699;50.534;12.784;2023-06-10T07:23:59;96378.53;;;34.39
73894;BMP280;62699;50.534;12.784;2023-06-10T07:29:00;96385.56;;;33.81
73894;BMP280;62699;50.534;12.784;2023-06-10T07:34:00;96377.25;;;34.12
73894;BMP280;62699;50.534;12.784;2023-06-10T07:39:00;96377.94;;;33.56
73894;BMP280;62699;50.534;12.784;2023-06-10T07:44:01;96382.19;;;31.07
73894;BMP280;62699;50.534;12.784;2023-06-10T07:49:02;96387.66;;;31.63
73894;BMP280;62699;50.534;12.784;2023-06-10T07:54:03;96390.94;;;31.38
73894;BMP280;62699;50.534;12.784;2023-06-10T07:59:03;96382.53;;;31.56
73894;BMP280;62699;50.534;12.784;2023-06-10T08:04:04;96383.22;;;31.56
73894;BMP280;62699;50.534;12.784;2023-06-10T08:09:04;96375.88;;;32.08
73894;BMP280;62699;50.534;12.784;2023-06-10T08:14:05;96375.28;;;31.68
73894;BMP280;62699;50.534;12.784;2023-06-10T08:19:05;96386.06;;;30.60
73894;BMP280;62699;50.534;12.784;2023-06-10T08:24:06;96391.50;;;29.23
73894;BMP280;62699;50.534;12.784;2023-06-10T08:29:06;96391.56;;;29.57
73894;BMP280;62699;50.534;12.784;2023-06-10T08:34:07;96395.69;;;28.77
73894;BMP280;62699;50.534;12.784;2023-06-10T08:39:07;96395.13;;;27.25
73894;BMP280;62699;50.534;12.784;2023-06-10T08:44:30;96394.84;;;26.69
73894;BMP280;62699;50.534;12.784;2023-06-10T08:49:32;96387.88;;;27.32
73894;BMP280;62699;50.534;12.784;2023-06-10T08:54:34;96393.19;;;26.39
73894;BMP280;62699;50.534;12.784;2023-06-10T08:59:38;96395.16;;;27.00
73894;BMP280;62699;50.534;12.784;2023-06-10T09:04:38;96391.50;;;27.09
73894;BMP280;62699;50.534;12.784;2023-06-10T09:09:39;96386.94;;;26.01
73894;BMP280;62699;50.534;12.784;2023-06-10T09:14:43;96406.78;;;24.96
73894;BMP280;62699;50.534;12.784;2023-06-10T09:19:46;96417.94;;;24.98
73894;BMP280;62699;50.534;12.784;2023-06-10T09:24:46;96415.84;;;24.33
73894;BMP280;62699;50.534;12.784;2023-06-10T09:29:51;96415.34;;;24.25
73894;BMP280;62699;50.534;12.784;2023-06-10T09:34:52;96404.81;;;23.90
73894;BMP280;62699;50.534;12.784;2023-06-10T09:40:06;96404.38;;;23.94
73894;BMP280;62699;50.534;12.784;2023-06-10T09:45:09;96413.06;;;24.42
73894;BMP280;62699;50.534;12.784;2023-06-10T09:50:11;96410.44;;;25.21
73894;BMP280;62699;50.534;12.784;2023-06-10T09:55:12;96411.91;;;25.57
73894;BMP280;62699;50.534;12.784;2023-06-10T10:00:14;96421.38;;;25.77
73894;BMP280;62699;50.534;12.784;2023-06-10T10:05:17;96417.75;;;26.10
73894;BMP280;62699;50.534;12.784;2023-06-10T10:10:20;96417.78;;;26.97
73894;BMP280;62699;50.534;12.784;2023-06-10T10:15:21;96432.66;;;26.53
73894;BMP280;62699;50.534;12.784;2023-06-10T10:20:29;96427.13;;;27.03
73894;BMP280;62699;50.534;12.784;2023-06-10T10:25:38;96437.69;;;26.45
73894;BMP280;62699;50.534;12.784;2023-06-10T10:30:42;96426.91;;;25.54
73894;BMP280;62699;50.534;12.784;2023-06-10T10:35:43;96430.59;;;24.37
73894;BMP280;62699;50.534;12.784;2023-06-10T10:40:44;96412.56;;;23.32
73894;BMP280;62699;50.534;12.784;2023-06-10T10:45:46;96428.34;;;22.84
73894;BMP280;62699;50.534;12.784;2023-06-10T10:50:57;96413.66;;;22.05
73894;BMP280;62699;50.534;12.784;2023-06-10T10:56:12;96407.31;;;21.66
73894;BMP280;62699;50.534;12.784;2023-06-10T11:01:14;96401.75;;;21.47
73894;BMP280;62699;50.534;12.784;2023-06-10T11:06:18;96400.09;;;21.61
73894;BMP280;62699;50.534;12.784;2023-06-10T11:11:21;96398.69;;;22.15
73894;BMP280;62699;50.534;12.784;2023-06-10T11:16:21;96394.38;;;23.58
73894;BMP280;62699;50.534;12.784;2023-06-10T11:21:26;96401.97;;;24.09
73894;BMP280;62699;50.534;12.784;2023-06-10T11:31:29;96399.63;;;22.95
73894;BMP280;62699;50.534;12.784;2023-06-10T11:36:32;96407.66;;;24.23
73894;BMP280;62699;50.534;12.784;2023-06-10T11:41:34;96402.19;;;24.77
73894;BMP280;62699;50.534;12.784;2023-06-10T11:46:35;96392.41;;;24.32
73894;BMP280;62699;50.534;12.784;2023-06-10T11:51:39;96399.78;;;24.29
73894;BMP280;62699;50.534;12.784;2023-06-10T11:56:41;96400.88;;;24.45
73894;BMP280;62699;50.534;12.784;2023-06-10T12:01:43;96392.44;;;25.09
73894;BMP280;62699;50.534;12.784;2023-06-10T12:06:46;96388.13;;;25.06
73894;BMP280;62699;50.534;12.784;2023-06-10T12:16:56;96382.88;;;25.79
73894;BMP280;62699;50.534;12.784;2023-06-10T12:21:56;96383.38;;;25.41
73894;BMP280;62699;50.534;12.784;2023-06-10T12:26:56;96377.13;;;25.52
73894;BMP280;62699;50.534;12.784;2023-06-10T12:32:01;96386.25;;;25.78
73894;BMP280;62699;50.534;12.784;2023-06-10T12:37:05;96409.06;;;25.67
73894;BMP280;62699;50.534;12.784;2023-06-10T12:42:08;96380.25;;;25.58
73894;BMP280;62699;50.534;12.784;2023-06-10T12:47:10;96375.13;;;25.64
73894;BMP280;62699;50.534;12.784;2023-06-10T12:52:12;96378.75;;;26.15
73894;BMP280;62699;50.534;12.784;2023-06-10T12:57:12;96379.38;;;25.90
73894;BMP280;62699;50.534;12.784;2023-06-10T13:02:14;96362.25;;;25.80
73894;BMP280;62699;50.534;12.784;2023-06-10T13:07:15;96365.00;;;26.29
73894;BMP280;62699;50.534;12.784;2023-06-10T13:12:18;96364.16;;;26.63
73894;BMP280;62699;50.534;12.784;2023-06-10T13:17:18;96362.97;;;27.18
73894;BMP280;62699;50.534;12.784;2023-06-10T13:22:19;96356.34;;;27.37
73894;BMP280;62699;50.534;12.784;2023-06-10T13:27:20;96366.56;;;26.82
73894;BMP280;62699;50.534;12.784;2023-06-10T13:32:20;96358.28;;;26.82
73894;BMP280;62699;50.534;12.784;2023-06-10T13:37:21;96360.91;;;26.80
73894;BMP280;62699;50.534;12.784;2023-06-10T13:42:23;96365.00;;;26.29
73894;BMP280;62699;50.534;12.784;2023-06-10T13:47:26;96364.44;;;25.70
73894;BMP280;62699;50.534;12.784;2023-06-10T13:52:26;96356.28;;;25.49
73894;BMP280;62699;50.534;12.784;2023-06-10T13:57:26;96346.59;;;25.25
73894;BMP280;62699;50.534;12.784;2023-06-10T14:02:27;96346.69;;;25.04
73894;BMP280;62699;50.534;12.784;2023-06-10T14:07:27;96344.53;;;25.37
73894;BMP280;62699;50.534;12.784;2023-06-10T14:12:29;96345.75;;;25.34
73894;BMP280;62699;50.534;12.784;2023-06-10T14:17:29;96343.47;;;25.65
73894;BMP280;62699;50.534;12.784;2023-06-10T14:22:30;96336.09;;;25.93
73894;BMP280;62699;50.534;12.784;2023-06-10T14:27:30;96342.72;;;26.25
73894;BMP280;62699;50.534;12.784;2023-06-10T14:32:30;96337.13;;;27.00
73894;BMP280;62699;50.534;12.784;2023-06-10T14:37:31;96345.19;;;27.49
73894;BMP280;62699;50.534;12.784;2023-06-10T14:42:31;96346.34;;;26.91
73894;BMP280;62699;50.534;12.784;2023-06-10T14:47:32;96341.53;;;26.92
73894;BMP280;62699;50.534;12.784;2023-06-10T14:52:32;96336.38;;;27.39
73894;BMP280;62699;50.534;12.784;2023-06-10T14:57:32;96330.16;;;26.99
73894;BMP280;62699;50.534;12.784;2023-06-10T15:02:34;96340.06;;;26.52
73894;BMP280;62699;50.534;12.784;2023-06-10T15:07:34;96328.03;;;26.34
73894;BMP280;62699;50.534;12.784;2023-06-10T15:12:35;96333.47;;;25.95
73894;BMP280;62699;50.534;12.784;2023-06-10T15:17:35;96337.22;;;26.25
73894;BMP280;62699;50.534;12.784;2023-06-10T15:22:36;96339.03;;;25.72
73894;BMP280;62699;50.534;12.784;2023-06-10T15:27:37;96322.28;;;26.05
73894;BMP280;62699;50.534;12.784;2023-06-10T15:32:37;96330.50;;;26.16
73894;BMP280;62699;50.534;12.784;2023-06-10T15:37:37;96331.34;;;25.47
73894;BMP280;62699;50.534;12.784;2023-06-10T15:42:37;96339.03;;;25.49
73894;BMP280;62699;50.534;12.784;2023-06-10T15:47:39;96343.13;;;25.36
73894;BMP280;62699;50.534;12.784;2023-06-10T15:52:41;96347.69;;;25.31
73894;BMP280;62699;50.534;12.784;2023-06-10T15:57:42;96349.34;;;25.25
73894;BMP280;62699;50.534;12.784;2023-06-10T16:02:42;96347.66;;;25.43
73894;BMP280;62699;50.534;12.784;2023-06-10T16:07:43;96346.94;;;25.19
73894;BMP280;62699;50.534;12.784;2023-06-10T16:12:43;96348.41;;;25.32
73894;BMP280;62699;50.534;12.784;2023-06-10T16:17:43;96356.63;;;25.09
73894;BMP280;62699;50.534;12.784;2023-06-10T16:22:43;96374.34;;;24.94
73894;BMP280;62699;50.534;12.784;2023-06-10T16:27:45;96366.72;;;24.71
73894;BMP280;62699;50.534;12.784;2023-06-10T16:32:45;96374.53;;;24.87
73894;BMP280;62699;50.534;12.784;2023-06-10T16:37:45;96388.25;;;24.63
73894;BMP280;62699;50.534;12.784;2023-06-10T16:42:46;96388.22;;;23.79
73894;BMP280;62699;50.534;12.784;2023-06-10T16:47:47;96404.53;;;23.56
73894;BMP280;62699;50.534;12.784;2023-06-10T16:52:47;96416.81;;;23.64
73894;BMP280;62699;50.534;12.784;2023-06-10T16:57:47;96422.22;;;23.53
73894;BMP280;62699;50.534;12.784;2023-06-10T17:02:47;96428.78;;;23.19
73894;BMP280;62699;50.534;12.784;2023-06-10T17:07:49;96420.94;;;23.25
73894;BMP280;62699;50.534;12.784;2023-06-10T17:12:49;96425.75;;;23.15
73894;BMP280;62699;50.534;12.784;2023-06-10T17:17:51;96413.19;;;23.12
73894;BMP280;62699;50.534;12.784;2023-06-10T17:22:53;96417.09;;;22.80
73894;BMP280;62699;50.534;12.784;2023-06-10T17:27:54;96418.69;;;22.64
73894;BMP280;62699;50.534;12.784;2023-06-10T17:32:54;96419.13;;;22.51
73894;BMP280;62699;50.534;12.784;2023-06-10T17:37:54;96419.94;;;22.24
73894;BMP280;62699;50.534;12.784;2023-06-10T17:42:55;96421.47;;;22.08
73894;BMP280;62699;50.534;12.784;2023-06-10T17:47:58;96429.03;;;21.81
73894;BMP280;62699;50.534;12.784;2023-06-10T17:52:59;96424.19;;;21.36
73894;BMP280;62699;50.534;12.784;2023-06-10T17:58:00;96441.06;;;21.15
73894;BMP280;62699;50.534;12.784;2023-06-10T18:03:01;96435.59;;;20.98
73894;BMP280;62699;50.534;12.784;2023-06-10T18:08:03;96446.69;;;20.83
73894;BMP280;62699;50.534;12.784;2023-06-10T18:13:04;96445.16;;;20.72
73894;BMP280;62699;50.534;12.784;2023-06-10T18:18:04;96447.84;;;20.38
73894;BMP280;62699;50.534;12.784;2023-06-10T18:23:04;96457.13;;;20.18
73894;BMP280;62699;50.534;12.784;2023-06-10T18:28:05;96462.09;;;20.12
73894;BMP280;62699;50.534;12.784;2023-06-10T18:33:06;96471.06;;;20.05
73894;BMP280;62699;50.534;12.784;2023-06-10T18:38:07;96465.66;;;19.97
73894;BMP280;62699;50.534;12.784;2023-06-10T18:43:07;96485.94;;;19.86
73894;BMP280;62699;50.534;12.784;2023-06-10T18:48:08;96487.09;;;19.76
73894;BMP280;62699;50.534;12.784;2023-06-10T18:53:09;96479.66;;;19.61
73894;BMP280;62699;50.534;12.784;2023-06-10T18:58:11;96483.75;;;19.45
73894;BMP280;62699;50.534;12.784;2023-06-10T19:03:11;96490.22;;;19.25
73894;BMP280;62699;50.534;12.784;2023-06-10T19:08:11;96498.59;;;19.04
73894;BMP280;62699;50.534;12.784;2023-06-10T19:13:11;96506.47;;;18.85
73894;BMP280;62699;50.534;12.784;2023-06-10T19:18:12;96500.47;;;18.71
73894;BMP280;62699;50.534;12.784;2023-06-10T19:23:12;96502.69;;;18.58
73894;BMP280;62699;50.534;12.784;2023-06-10T19:28:12;96517.72;;;18.36
73894;BMP280;62699;50.534;12.784;2023-06-10T19:33:13;96519.31;;;18.16
73894;BMP280;62699;50.534;12.784;2023-06-10T19:38:14;96522.19;;;17.96
73894;BMP280;62699;50.534;12.784;2023-06-10T19:43:15;96527.56;;;17.80
73894;BMP280;62699;50.534;12.784;2023-06-10T19:48:17;96530.38;;;17.60
73894;BMP280;62699;50.534;12.784;2023-06-10T19:53:17;96531.91;;;17.40
73894;BMP280;62699;50.534;12.784;2023-06-10T19:58:20;96530.34;;;17.16
73894;BMP280;62699;50.534;12.784;2023-06-10T20:03:20;96529.47;;;17.01
73894;BMP280;62699;50.534;12.784;2023-06-10T20:08:20;96532.47;;;16.90
73894;BMP280;62699;50.534;12.784;2023-06-10T20:13:21;96540.50;;;16.74
73894;BMP280;62699;50.534;12.784;2023-06-10T20:18:21;96545.06;;;16.59
73894;BMP280;62699;50.534;12.784;2023-06-10T20:23:22;96548.50;;;16.39
73894;BMP280;62699;50.534;12.784;2023-06-10T20:28:22;96548.00;;;16.27
73894;BMP280;62699;50.534;12.784;2023-06-10T20:33:22;96551.91;;;16.18
73894;BMP280;62699;50.534;12.784;2023-06-10T20:38:23;96552.13;;;16.07
73894;BMP280;62699;50.534;12.784;2023-06-10T20:43:24;96560.63;;;15.91
73894;BMP280;62699;50.534;12.784;2023-06-10T20:48:24;96554.28;;;15.75
73894;BMP280;62699;50.534;12.784;2023-06-10T20:53:26;96554.09;;;15.60
73894;BMP280;62699;50.534;12.784;2023-06-10T20:58:26;96553.78;;;15.50
73894;BMP280;62699;50.534;12.784;2023-06-10T21:03:28;96548.56;;;15.39
73894;BMP280;62699;50.534;12.784;2023-06-10T21:08:28;96550.50;;;15.25
73894;BMP280;62699;50.534;12.784;2023-06-10T21:13:28;96552.16;;;15.15
73894;BMP280;62699;50.534;12.784;2023-06-10T21:18:32;96561.75;;;15.03
73894;BMP280;62699;50.534;12.784;2023-06-10T21:23:33;96552.84;;;14.90
73894;BMP280;62699;50.534;12.784;2023-06-10T21:28:33;96553.63;;;14.85
73894;BMP280;62699;50.534;12.784;2023-06-10T21:33:34;96555.28;;;14.74
73894;BMP280;62699;50.534;12.784;2023-06-10T21:38:34;96555.16;;;14.67
73894;BMP280;62699;50.534;12.784;2023-06-10T21:43:34;96555.03;;;14.59
73894;BMP280;62699;50.534;12.784;2023-06-10T21:48:35;96564.56;;;14.47
73894;BMP280;62699;50.534;12.784;2023-06-10T21:53:36;96563.44;;;14.37
73894;BMP280;62699;50.534;12.784;2023-06-10T21:58:37;96561.56;;;14.32
73894;BMP280;62699;50.534;12.784;2023-06-10T22:03:37;96570.97;;;14.25
73894;BMP280;62699;50.534;12.784;2023-06-10T22:08:39;96577.28;;;14.15
73894;BMP280;62699;50.534;12.784;2023-06-10T22:13:40;96579.84;;;14.07
73894;BMP280;62699;50.534;12.784;2023-06-10T22:18:40;96566.72;;;13.93
73894;BMP280;62699;50.534;12.784;2023-06-10T22:23:40;96568.28;;;13.82
73894;BMP280;62699;50.534;12.784;2023-06-10T22:28:41;96566.03;;;13.68
73894;BMP280;62699;50.534;12.784;2023-06-10T22:33:41;96564.81;;;13.63
73894;BMP280;62699;50.534;12.784;2023-06-10T22:38:41;96568.25;;;13.64
73894;BMP280;62699;50.534;12.784;2023-06-10T22:43:41;96560.69;;;13.57
73894;BMP280;62699;50.534;12.784;2023-06-10T22:48:42;96569.34;;;13.55
73894;BMP280;62699;50.534;12.784;2023-06-10T22:53:43;96564.00;;;13.50
73894;BMP280;62699;50.534;12.784;2023-06-10T22:58:45;96556.63;;;13.45
73894;BMP280;62699;50.534;12.784;2023-06-10T23:03:45;96557.25;;;13.32
73894;BMP280;62699;50.534;12.784;2023-06-10T23:08:49;96555.09;;;13.25
73894;BMP280;62699;50.534;12.784;2023-06-10T23:13:49;96556.41;;;13.18
73894;BMP280;62699;50.534;12.784;2023-06-10T23:18:50;96561.09;;;13.12
73894;BMP280;62699;50.534;12.784;2023-06-10T23:23:52;96562.19;;;13.04
73894;BMP280;62699;50.534;12.784;2023-06-10T23:28:54;96564.19;;;12.92
73894;BMP280;62699;50.534;12.784;2023-06-10T23:33:56;96563.81;;;12.82
73894;BMP280;62699;50.534;12.784;2023-06-10T23:39:01;96563.56;;;12.80
73894;BMP280;62699;50.534;12.784;2023-06-10T23:44:04;96570.72;;;12.72
73894;BMP280;62699;50.534;12.784;2023-06-10T23:49:07;96576.88;;;12.73
73894;BMP280;62699;50.534;12.784;2023-06-10T23:54:10;96569.81;;;12.64
73894;BMP280;62699;50.534;12.784;2023-06-10T23:59:13;96574.03;;;12.60
